Time;durP1;ratioP1;P1;durP2;ratioP2;P2;SDS_P1;SDS_P2;PMS_P1;PMS_P2;Temp;Humidity;BMP_temperature;BMP_pressure;BME280_temperature;BME280_humidity;BME280_pressure;Samples;Min_cycle;Max_cycle;Signal;HPM_P1;HPM_P2
2024/04/24 00:00:38;;;;;;;20.90;7.30;;;7.80;48.90;;;;;;5454448;26;20229;-82
2024/04/24 00:03:04;;;;;;;19.65;6.70;;;7.80;58.20;;;;;;5454877;26;20606;-82
2024/04/24 00:05:30;;;;;;;19.63;6.23;;;7.70;69.40;;;;;;5454670;26;20314;-82
2024/04/24 00:07:55;;;;;;;21.43;6.97;;;7.70;80.90;;;;;;5457487;26;20446;-82
2024/04/24 00:10:21;;;;;;;22.60;7.57;;;7.70;77.40;;;;;;5458423;26;20590;-82
2024/04/24 00:12:47;;;;;;;28.43;8.30;;;7.70;85.00;;;;;;5458751;26;20427;-82
2024/04/24 00:15:13;;;;;;;21.23;6.77;;;7.70;82.60;;;;;;5458263;26;20208;-82
2024/04/24 00:17:38;;;;;;;24.00;8.10;;;7.70;89.70;;;;;;5426258;26;20554;-82
2024/04/24 00:20:05;;;;;;;20.70;5.90;;;7.60;93.10;;;;;;5426179;26;20584;-82
2024/04/24 00:22:30;;;;;;;23.35;8.13;;;7.60;94.10;;;;;;5426282;26;20210;-82
2024/04/24 00:24:56;;;;;;;25.43;7.20;;;7.60;94.90;;;;;;5457879;26;20244;-82
2024/04/24 00:27:22;;;;;;;19.70;6.93;;;7.60;95.50;;;;;;5458116;26;20210;-82
2024/04/24 00:29:47;;;;;;;23.90;8.03;;;7.60;99.20;;;;;;5457970;26;20203;-82
2024/04/24 00:32:14;;;;;;;21.80;7.53;;;7.60;99.90;;;;;;5458066;26;20204;-82
2024/04/24 00:34:40;;;;;;;24.85;8.73;;;7.60;99.90;;;;;;5426054;26;20254;-82
2024/04/24 00:37:05;;;;;;;21.97;7.50;;;7.60;99.90;;;;;;5458518;26;20223;-82
2024/04/24 00:39:31;;;;;;;19.20;6.93;;;7.60;99.90;;;;;;5457602;26;20205;-82
2024/04/24 00:41:56;;;;;;;20.07;6.50;;;7.60;99.90;;;;;;5457583;26;20229;-82
2024/04/24 00:44:22;;;;;;;20.50;7.00;;;7.60;99.90;;;;;;5457653;26;20211;-82
2024/04/24 00:46:49;;;;;;;20.70;6.97;;;7.50;99.90;;;;;;5457578;26;20274;-82
2024/04/24 00:49:16;;;;;;;22.83;7.60;;;7.50;99.90;;;;;;5457964;26;20237;-82
2024/04/24 00:51:43;;;;;;;20.40;7.30;;;7.50;99.90;;;;;;5457673;26;20742;-82
2024/04/24 00:54:09;;;;;;;22.02;6.80;;;7.50;99.90;;;;;;5457938;26;20245;-82
2024/04/24 00:56:35;;;;;;;21.48;6.63;;;7.50;99.90;;;;;;5457431;26;20255;-82
2024/04/24 00:59:01;;;;;;;22.80;7.07;;;7.50;99.90;;;;;;5457920;26;20209;-83
2024/04/24 01:01:27;;;;;;;20.43;6.53;;;7.40;99.90;;;;;;5425901;26;20462;-83
2024/04/24 01:03:53;;;;;;;19.92;6.45;;;7.40;99.90;;;;;;5458156;26;20776;-82
2024/04/24 01:06:18;;;;;;;19.37;6.43;;;7.30;99.90;;;;;;5425907;26;20317;-82
2024/04/24 01:08:44;;;;;;;20.77;5.20;;;7.30;99.90;;;;;;5457761;26;20592;-82
2024/04/24 01:11:10;;;;;;;20.37;5.77;;;7.30;99.90;;;;;;5457270;26;20230;-82
2024/04/24 01:13:35;;;;;;;20.20;5.70;;;7.30;99.90;;;;;;5425802;26;20218;-82
2024/04/24 01:16:17;;;;;;;19.60;5.07;;;7.30;99.90;;;;;;5457824;26;20221;-82
2024/04/24 01:18:56;;;;;;;18.63;4.28;;;7.20;99.90;;;;;;5457260;26;20175;-83
2024/04/24 01:21:26;;;;;;;18.33;4.97;;;7.20;99.90;;;;;;5426040;26;20221;-83
2024/04/24 01:24:03;;;;;;;19.98;4.00;;;7.10;99.90;;;;;;5457534;26;20171;-82
2024/04/24 01:26:47;;;;;;;20.30;4.32;;;7.00;99.90;;;;;;5457558;26;20173;-82
2024/04/24 01:29:13;;;;;;;22.25;4.03;;;6.90;99.90;;;;;;5457523;26;20172;-82
2024/04/24 01:31:39;;;;;;;20.97;3.63;;;6.90;99.90;;;;;;5457351;26;20218;-82
2024/04/24 01:34:05;;;;;;;20.73;3.97;;;6.90;99.90;;;;;;5425483;26;20443;-82
2024/04/24 01:36:31;;;;;;;19.88;4.60;;;7.00;99.90;;;;;;5425684;26;20618;-82
2024/04/24 01:38:57;;;;;;;20.07;3.63;;;6.90;99.90;;;;;;5457187;26;20319;-82
2024/04/24 01:41:22;;;;;;;20.00;3.87;;;6.90;99.90;;;;;;5425520;26;20462;-82
2024/04/24 01:43:48;;;;;;;16.83;3.73;;;6.90;99.90;;;;;;5457090;26;20205;-82
2024/04/24 01:46:14;;;;;;;16.50;3.73;;;6.90;99.90;;;;;;5457398;26;20252;-82
2024/04/24 01:48:39;;;;;;;19.00;3.40;;;6.90;99.90;;;;;;5425430;26;20275;-82
2024/04/24 01:51:05;;;;;;;19.10;3.73;;;7.00;99.90;;;;;;5425343;26;20323;-82
2024/04/24 01:53:31;;;;;;;16.17;3.03;;;6.80;99.90;;;;;;5456920;26;20205;-82
2024/04/24 01:55:56;;;;;;;15.87;3.00;;;6.80;99.90;;;;;;5457656;26;20548;-82
2024/04/24 01:58:22;;;;;;;15.20;2.87;;;6.90;99.90;;;;;;5456998;26;20525;-82
2024/04/24 02:00:48;;;;;;;19.20;4.40;;;6.90;99.90;;;;;;5456990;26;20248;-82
2024/04/24 02:03:13;;;;;;;20.00;4.17;;;6.90;99.90;;;;;;5456859;26;20221;-82
2024/04/24 02:05:39;;;;;;;15.40;3.50;;;7.00;99.90;;;;;;5456896;26;20219;-82
2024/04/24 02:08:05;;;;;;;18.43;3.50;;;7.00;99.90;;;;;;5456866;26;20253;-82
2024/04/24 02:10:31;;;;;;;17.60;3.00;;;6.90;99.90;;;;;;5457125;26;20249;-82
2024/04/24 02:12:57;;;;;;;18.50;3.80;;;7.00;99.90;;;;;;5456820;26;20203;-81
2024/04/24 02:15:22;;;;;;;18.03;3.80;;;7.00;99.60;;;;;;5456619;26;20214;-82
2024/04/24 02:17:48;;;;;;;19.60;3.47;;;7.00;96.40;;;;;;5425064;26;20453;-82
2024/04/24 02:20:14;;;;;;;17.03;2.37;;;7.00;96.70;;;;;;5456625;26;20593;-82
2024/04/24 02:22:39;;;;;;;20.90;3.00;;;7.00;94.90;;;;;;5456716;26;20731;-82
2024/04/24 02:27:50;;;;;;;16.50;2.35;;;6.90;99.90;;;;;;5458556;26;20694;-81
2024/04/24 02:30:15;;;;;;;15.90;2.10;;;7.00;98.60;;;;;;5423259;26;20234;-81
2024/04/24 02:32:41;;;;;;;16.70;3.20;;;7.00;98.20;;;;;;5456288;26;20218;-82
2024/04/24 02:35:06;;;;;;;14.90;2.17;;;6.90;99.20;;;;;;5456253;26;20222;-81
2024/04/24 02:37:32;;;;;;;16.50;2.40;;;6.90;99.50;;;;;;5456486;26;20202;-82
2024/04/24 02:39:58;;;;;;;20.70;2.40;;;6.90;99.90;;;;;;5456169;26;20299;-82
2024/04/24 02:42:23;;;;;;;19.03;2.50;;;6.90;99.60;;;;;;5456508;26;20277;-82
2024/04/24 02:44:49;;;;;;;18.10;2.37;;;6.90;98.70;;;;;;5456102;26;20289;-82
2024/04/24 02:47:15;;;;;;;15.63;1.93;;;6.80;97.70;;;;;;5456195;26;20202;-82
2024/04/24 02:49:40;;;;;;;17.10;2.50;;;6.80;96.40;;;;;;5424496;26;20214;-82
2024/04/24 02:52:06;;;;;;;14.07;2.30;;;6.80;96.20;;;;;;5423838;26;20229;-82
2024/04/24 02:54:31;;;;;;;21.43;2.60;;;6.80;95.60;;;;;;5423858;26;20694;-81
2024/04/24 02:56:57;;;;;;;14.53;1.50;;;6.80;95.50;;;;;;5456049;26;20252;-81
2024/04/24 02:59:23;;;;;;;17.97;1.70;;;6.80;93.30;;;;;;5424615;26;20214;-82
2024/04/24 03:01:48;;;;;;;15.30;1.50;;;6.80;94.40;;;;;;5424030;26;20569;-82
2024/04/24 03:04:14;;;;;;;13.90;1.83;;;6.90;92.20;;;;;;5455809;26;20211;-82
2024/04/24 03:06:43;;;;;;;14.73;2.00;;;6.80;93.40;;;;;;5455556;26;20290;-82
2024/04/24 03:09:10;;;;;;;14.60;1.70;;;6.90;91.30;;;;;;5455512;26;20311;-81
2024/04/24 03:11:37;;;;;;;16.58;1.95;;;6.90;90.00;;;;;;5455417;26;20244;-82
2024/04/24 03:14:03;;;;;;;17.17;1.98;;;6.80;91.60;;;;;;5455531;26;20212;-82
2024/04/24 03:16:29;;;;;;;16.63;2.10;;;6.80;91.60;;;;;;5455612;26;20208;-82
2024/04/24 03:18:55;;;;;;;15.80;2.10;;;6.80;91.50;;;;;;5423760;26;20257;-82
2024/04/24 03:21:22;;;;;;;15.87;2.20;;;6.70;96.20;;;;;;5455442;26;20356;-82
2024/04/24 03:23:48;;;;;;;13.45;1.80;;;6.70;96.00;;;;;;5455390;26;20268;-82
2024/04/24 03:26:13;;;;;;;16.10;2.30;;;6.80;94.80;;;;;;5455584;26;20204;-81
2024/04/24 03:28:39;;;;;;;17.90;2.00;;;6.70;97.60;;;;;;5455665;26;20549;-82
2024/04/24 03:31:05;;;;;;;28.53;2.57;;;6.80;97.50;;;;;;5423488;26;20675;-82
2024/04/24 03:33:30;;;;;;;15.83;2.13;;;6.80;96.10;;;;;;5455264;26;20258;-82
2024/04/24 03:35:56;;;;;;;19.17;2.10;;;6.70;99.20;;;;;;5455646;26;20221;-81
2024/04/24 03:38:21;;;;;;;18.30;2.33;;;6.80;97.90;;;;;;5423416;26;20213;-81
2024/04/24 03:40:47;;;;;;;15.00;1.73;;;6.70;98.20;;;;;;5455134;26;20298;-82
2024/04/24 03:43:13;;;;;;;15.03;1.97;;;6.70;99.90;;;;;;5457950;26;20210;-82
2024/04/24 03:45:38;;;;;;;14.90;2.20;;;6.70;99.90;;;;;;5426670;26;20214;-81
2024/04/24 03:48:05;;;;;;;14.83;2.60;;;6.70;99.90;;;;;;5459077;26;20251;-81
2024/04/24 03:50:30;;;;;;;22.42;2.15;;;6.70;99.90;;;;;;5458271;26;20217;-81
2024/04/24 03:52:56;;;;;;;20.60;2.63;;;6.70;99.90;;;;;;5458664;26;20207;-81
2024/04/24 03:55:21;;;;;;;16.20;2.60;;;6.70;99.90;;;;;;5458519;26;20233;-81
2024/04/24 03:57:47;;;;;;;21.23;2.60;;;6.80;99.90;;;;;;5458718;26;20203;-81
2024/04/24 04:00:13;;;;;;;19.27;2.40;;;6.70;99.30;;;;;;5426688;26;20241;-82
2024/04/24 04:02:39;;;;;;;16.97;2.83;;;6.70;99.90;;;;;;5458807;26;20571;-81
2024/04/24 04:05:04;;;;;;;16.47;2.93;;;6.80;99.90;;;;;;5458861;26;20448;-81
2024/04/24 04:07:30;;;;;;;15.50;2.03;;;6.80;99.20;;;;;;5458485;26;20205;-81
2024/04/24 04:09:56;;;;;;;19.90;3.23;;;6.70;99.90;;;;;;5458617;26;20782;-81
2024/04/24 04:12:21;;;;;;;17.70;3.10;;;6.60;99.90;;;;;;5426704;26;20213;-81
2024/04/24 04:14:47;;;;;;;18.30;2.60;;;6.60;99.90;;;;;;5458489;26;20205;-81
2024/04/24 04:17:13;;;;;;;16.37;2.90;;;6.60;99.90;;;;;;5458263;26;20205;-81
2024/04/24 04:19:38;;;;;;;16.07;2.70;;;6.60;99.90;;;;;;5426246;26;20239;-81
2024/04/24 04:22:04;;;;;;;17.67;2.50;;;6.60;99.90;;;;;;5458329;26;20248;-82
2024/04/24 04:24:29;;;;;;;13.80;1.93;;;6.60;99.90;;;;;;5458389;26;20285;-81
2024/04/24 04:26:55;;;;;;;17.63;2.80;;;6.60;99.90;;;;;;5426281;26;20237;-81
2024/04/24 04:29:20;;;;;;;16.10;2.50;;;6.50;99.90;;;;;;5426225;26;20217;-81
2024/04/24 04:31:46;;;;;;;20.63;2.63;;;6.60;99.90;;;;;;5458196;26;20217;-81
2024/04/24 04:34:12;;;;;;;18.27;2.50;;;6.60;99.90;;;;;;5458515;26;20256;-81
2024/04/24 04:36:40;;;;;;;18.07;2.50;;;6.60;99.90;;;;;;5536418;21;20283;-82
2024/04/24 04:39:06;;;;;;;14.57;1.80;;;6.50;99.90;;;;;;5427063;26;20709;-83
2024/04/24 04:41:35;;;;;;;14.83;1.93;;;6.40;99.90;;;;;;5459054;26;20223;-83
2024/04/24 04:44:07;;;;;;;18.73;1.98;;;6.50;99.90;;;;;;5426821;26;20232;-83
2024/04/24 04:46:36;;;;;;;16.10;1.75;;;6.50;99.90;;;;;;5427074;26;20209;-83
2024/04/24 04:49:01;;;;;;;13.40;1.48;;;6.40;97.70;;;;;;5425747;26;20309;-82
2024/04/24 04:51:27;;;;;;;18.10;2.00;;;6.40;96.80;;;;;;5427692;26;20237;-84
2024/04/24 04:53:53;;;;;;;15.43;2.20;;;6.40;97.20;;;;;;5457884;26;20237;-83
2024/04/24 04:56:19;;;;;;;14.93;1.87;;;6.50;96.40;;;;;;5459105;26;20201;-84
2024/04/24 04:58:50;;;;;;;15.57;1.43;;;6.50;94.50;;;;;;5459154;26;20201;-85
2024/04/24 05:01:18;;;;;;;13.35;1.60;;;6.40;90.50;;;;;;5457044;26;20303;-83
2024/04/24 05:03:44;;;;;;;18.85;2.15;;;6.40;91.60;;;;;;5458954;26;20255;-83
2024/04/24 05:06:15;;;;;;;15.80;2.50;;;6.40;91.60;;;;;;5426901;26;20217;-83
2024/04/24 05:08:56;;;;;;;;;;;;;;;;;;;;;
2024/04/24 05:11:31;;;;;;;15.73;2.22;;;6.50;91.80;;;;;;5458711;26;20213;-83
2024/04/24 05:13:57;;;;;;;13.82;1.63;;;6.50;92.20;;;;;;5427597;26;20534;-83
2024/04/24 05:16:26;;;;;;;12.80;1.43;;;6.50;90.50;;;;;;5458645;26;20233;-84
2024/04/24 05:18:51;;;;;;;13.73;1.65;;;6.50;90.40;;;;;;5458640;26;20279;-83
2024/04/24 05:21:19;;;;;;;14.80;2.07;;;6.40;89.10;;;;;;5426787;26;20234;-84
2024/04/24 05:23:45;;;;;;;15.40;2.70;;;6.40;90.90;;;;;;5426730;26;20541;-82
2024/04/24 05:29:06;;;;;;;14.93;1.95;;;6.60;92.50;;;;;;5459896;26;20619;-82
2024/04/24 05:31:37;;;;;;;13.15;1.50;;;6.50;90.80;;;;;;5458336;26;20746;-83
2024/04/24 05:34:04;;;;;;;12.95;1.50;;;6.60;91.30;;;;;;5426236;26;20302;-82
2024/04/24 05:36:29;;;;;;;13.50;1.80;;;6.60;91.80;;;;;;5426512;26;20240;-83
2024/04/24 05:38:58;;;;;;;13.67;1.90;;;6.60;90.20;;;;;;5426507;26;20213;-83
2024/04/24 05:41:24;;;;;;;16.90;1.80;;;6.60;90.50;;;;;;5426514;26;20533;-82
2024/04/24 05:43:56;;;;;;;15.67;2.00;;;6.60;90.70;;;;;;5458457;26;20210;-82
2024/04/24 05:46:21;;;;;;;14.63;2.10;;;6.60;92.50;;;;;;5458917;26;20251;-82
2024/04/24 05:48:49;;;;;;;17.20;1.83;;;6.60;93.90;;;;;;5426418;26;20227;-82
2024/04/24 05:51:15;;;;;;;16.13;2.22;;;6.70;93.60;;;;;;5426526;26;20572;-82
2024/04/24 05:53:40;;;;;;;15.30;2.87;;;6.80;94.70;;;;;;5426016;26;20254;-83
2024/04/24 05:56:06;;;;;;;15.07;2.70;;;6.80;94.70;;;;;;5425893;26;20699;-83
2024/04/24 05:58:35;;;;;;;16.40;2.23;;;6.80;90.30;;;;;;5458005;26;20205;-83
2024/04/24 06:01:00;;;;;;;17.67;2.75;;;6.80;90.50;;;;;;5458273;26;20246;-82
2024/04/24 06:03:27;;;;;;;15.23;2.37;;;6.80;89.60;;;;;;5426451;26;20546;-83
2024/04/24 06:05:52;;;;;;;16.27;2.75;;;6.90;93.60;;;;;;5425949;26;20678;-83
2024/04/24 06:08:18;;;;;;;18.87;3.07;;;6.90;90.80;;;;;;5426096;26;20214;-83
2024/04/24 06:10:44;;;;;;;16.37;2.70;;;6.90;89.00;;;;;;5426343;26;20235;-83
2024/04/24 06:13:09;;;;;;;15.70;2.70;;;7.00;85.50;;;;;;5425596;26;20552;-83
2024/04/24 06:15:35;;;;;;;15.20;2.77;;;7.10;79.50;;;;;;5457376;26;20218;-82
2024/04/24 06:18:01;;;;;;;21.50;3.40;;;7.10;81.50;;;;;;5425394;26;20237;-83
2024/04/24 06:20:26;;;;;;;17.53;2.80;;;7.10;79.40;;;;;;5425782;26;20256;-82
2024/04/24 06:22:52;;;;;;;15.47;3.40;;;7.20;80.70;;;;;;5458622;26;20431;-83
2024/04/24 06:25:18;;;;;;;16.93;3.03;;;7.20;80.20;;;;;;5426190;26;20217;-83
2024/04/24 06:27:44;;;;;;;16.20;4.10;;;7.30;76.10;;;;;;5426412;26;20725;-84
2024/04/24 06:30:10;;;;;;;16.03;3.07;;;7.30;69.10;;;;;;5457589;26;20219;-83
2024/04/24 06:32:35;;;;;;;14.30;2.17;;;7.30;64.70;;;;;;5425972;26;20218;-83
2024/04/24 06:35:02;;;;;;;15.07;3.00;;;7.30;62.50;;;;;;5457992;26;20262;-83
2024/04/24 06:37:28;;;;;;;16.55;2.95;;;7.40;57.40;;;;;;5457427;26;20204;-82
2024/04/24 06:39:54;;;;;;;16.17;2.70;;;7.40;53.30;;;;;;5425465;26;20240;-83
2024/04/24 06:42:20;;;;;;;16.53;2.97;;;7.40;64.70;;;;;;5425881;26;20443;-82
2024/04/24 06:44:46;;;;;;;14.50;2.75;;;7.50;59.30;;;;;;5458020;26;20484;-85
2024/04/24 06:47:11;;;;;;;14.10;1.93;;;7.40;39.80;;;;;;5426140;26;20225;-83
2024/04/24 06:49:37;;;;;;;15.50;2.63;;;7.40;39.90;;;;;;5457818;26;20764;-84
2024/04/24 06:52:04;;;;;;;15.47;1.70;;;7.30;37.70;;;;;;5425460;26;20223;-84
2024/04/24 06:54:30;;;;;;;17.95;2.60;;;7.20;39.50;;;;;;5426017;26;20272;-84
2024/04/24 06:56:56;;;;;;;14.50;2.40;;;7.20;32.90;;;;;;5426236;26;20245;-83
2024/04/24 06:59:23;;;;;;;13.52;1.55;;;7.20;30.10;;;;;;5457293;26;20322;-84
2024/04/24 07:01:49;;;;;;;14.25;1.80;;;7.10;31.30;;;;;;5426294;26;20229;-84
2024/04/24 07:04:14;;;;;;;14.70;2.20;;;7.10;29.60;;;;;;5457410;26;20587;-83
2024/04/24 07:06:40;;;;;;;16.10;2.37;;;7.10;23.90;;;;;;5457126;26;20337;-84
2024/04/24 07:09:06;;;;;;;16.07;2.37;;;7.10;25.30;;;;;;5425382;26;20492;-83
2024/04/24 07:11:32;;;;;;;20.50;1.95;;;7.30;33.20;;;;;;5425217;26;20656;-82
2024/04/24 07:13:58;;;;;;;15.70;2.40;;;7.50;27.10;;;;;;5425486;26;20223;-84
2024/04/24 07:16:24;;;;;;;14.48;1.85;;;7.50;18.80;;;;;;5425606;26;20256;-83
2024/04/24 07:18:50;;;;;;;15.40;2.30;;;7.50;8.60;;;;;;5460487;26;20216;-85
2024/04/24 07:21:15;;;;;;;14.10;1.90;;;7.50;2.60;;;;;;5428890;26;20223;-83
2024/04/24 07:23:41;;;;;;;14.70;1.90;;;7.50;2.10;;;;;;5460068;26;20260;-83
2024/04/24 07:26:06;;;;;;;14.67;2.10;;;7.40;1.00;;;;;;5460307;26;20603;-83
2024/04/24 07:28:32;;;;;;;12.90;1.67;;;7.50;1.00;;;;;;5460766;26;20207;-87
2024/04/24 07:30:58;;;;;;;15.63;1.73;;;7.50;1.00;;;;;;5460248;26;20684;-83
2024/04/24 07:33:24;;;;;;;15.43;1.83;;;7.60;1.00;;;;;;5460621;26;20210;-84
2024/04/24 07:35:49;;;;;;;19.90;2.10;;;7.70;1.00;;;;;;5429360;26;20229;-84
2024/04/24 07:38:15;;;;;;;15.13;2.20;;;7.80;1.00;;;;;;5460509;26;20222;-81
2024/04/24 07:40:41;;;;;;;15.93;1.73;;;7.80;1.00;;;;;;5459677;26;20326;-83
2024/04/24 07:43:13;;;;;;;13.37;1.60;;;7.80;1.00;;;;;;5428729;26;20679;-83
2024/04/24 07:45:42;;;;;;;15.23;2.00;;;7.90;1.00;;;;;;5461628;26;20387;-85
2024/04/24 07:48:07;;;;;;;14.00;2.10;;;7.80;1.00;;;;;;5428740;26;20223;-83
2024/04/24 07:50:33;;;;;;;15.60;2.10;;;7.80;1.00;;;;;;5460365;26;20799;-85
2024/04/24 07:53:00;;;;;;;13.20;1.50;;;7.80;1.00;;;;;;5428830;26;20218;-84
2024/04/24 07:55:26;;;;;;;17.55;2.10;;;7.90;1.00;;;;;;5460148;26;20205;-84
2024/04/24 07:57:51;;;;;;;16.80;2.13;;;8.00;1.00;;;;;;5428542;26;20310;-84
2024/04/24 08:00:17;;;;;;;15.37;2.70;;;8.30;1.00;;;;;;5427909;26;20260;-84
2024/04/24 08:02:43;;;;;;;16.63;2.27;;;8.40;1.00;;;;;;5460072;26;20354;-83
2024/04/24 08:05:08;;;;;;;20.00;2.57;;;8.60;1.00;;;;;;5460328;26;20944;-84
2024/04/24 08:07:35;;;;;;;16.00;2.10;;;8.70;1.00;;;;;;5459726;26;20687;-83
2024/04/24 08:10:00;;;;;;;16.42;2.35;;;8.70;1.00;;;;;;5459574;26;20679;-83
2024/04/24 08:12:26;;;;;;;22.37;2.60;;;8.70;1.00;;;;;;5459901;26;20256;-84
2024/04/24 08:14:52;;;;;;;14.90;1.67;;;8.70;1.00;;;;;;5460007;26;20252;-85
2024/04/24 08:17:18;;;;;;;15.37;1.80;;;8.60;1.00;;;;;;5459538;26;20256;-84
2024/04/24 08:19:43;;;;;;;14.60;2.60;;;8.70;1.00;;;;;;5460109;26;20434;-84
2024/04/24 08:22:09;;;;;;;16.00;1.90;;;8.80;1.00;;;;;;5428504;26;20225;-83
2024/04/24 08:24:35;;;;;;;17.80;2.70;;;8.90;1.00;;;;;;5428366;26;20217;-82
2024/04/24 08:27:01;;;;;;;15.63;2.10;;;8.90;1.00;;;;;;5429153;26;20217;-83
2024/04/24 08:29:28;;;;;;;16.77;2.03;;;8.90;1.00;;;;;;5428206;26;20210;-82
2024/04/24 08:31:56;;;;;;;20.58;2.15;;;8.90;1.00;;;;;;5460063;26;20250;-85
2024/04/24 08:34:22;;;;;;;15.18;2.00;;;9.00;1.00;;;;;;5459666;26;20209;-83
2024/04/24 08:36:48;;;;;;;17.40;2.90;;;9.00;1.00;;;;;;5428140;26;20268;-84
2024/04/24 08:39:14;;;;;;;16.03;3.00;;;8.90;1.00;;;;;;5459851;26;20209;-83
2024/04/24 08:41:44;;;;;;;13.50;1.73;;;8.70;1.00;;;;;;5428221;26;20317;-83
2024/04/24 08:44:13;;;;;;;15.98;1.80;;;8.70;1.00;;;;;;5427948;26;20217;-85
2024/04/24 08:46:41;;;;;;;15.10;1.80;;;8.80;1.00;;;;;;5427484;26;20579;-83
2024/04/24 08:49:07;;;;;;;15.38;1.90;;;8.90;1.00;;;;;;5427688;26;20729;-85
2024/04/24 08:51:37;;;;;;;18.53;2.27;;;8.90;1.00;;;;;;5460629;26;20220;-83
2024/04/24 08:54:04;;;;;;;22.35;1.90;;;8.90;1.00;;;;;;5460109;26;20955;-85
2024/04/24 08:56:34;;;;;;;17.02;2.10;;;8.80;1.00;;;;;;5429074;26;20210;-84
2024/04/24 08:59:09;;;;;;;15.75;2.45;;;8.60;1.00;;;;;;5460351;26;20217;-83
2024/04/24 09:01:39;;;;;;;14.75;2.10;;;8.40;1.00;;;;;;5427762;26;20232;-84
2024/04/24 09:04:06;;;;;;;14.77;2.20;;;8.40;1.00;;;;;;5427303;26;20206;-82
2024/04/24 09:06:34;;;;;;;18.98;2.30;;;8.40;1.00;;;;;;5426985;26;20570;-82
2024/04/24 09:09:01;;;;;;;14.35;1.90;;;8.50;1.00;;;;;;5426834;26;20241;-83
2024/04/24 09:11:42;;;;;;;16.15;1.90;;;8.70;1.00;;;;;;5462617;26;20221;-82
2024/04/24 09:14:08;;;;;;;13.30;1.50;;;9.00;1.00;;;;;;5459707;26;20212;-84
2024/04/24 09:16:38;;;;;;;14.90;1.80;;;9.20;1.00;;;;;;5460396;26;20225;-85
2024/04/24 09:19:04;;;;;;;16.42;1.60;;;9.30;1.00;;;;;;5459584;26;20189;-83
2024/04/24 09:21:31;;;;;;;19.65;2.45;;;9.10;1.00;;;;;;5398852;26;20763;-82
2024/04/24 09:23:57;;;;;;;14.80;1.90;;;9.20;1.00;;;;;;5459912;26;20271;-83
2024/04/24 09:26:27;;;;;;;17.08;1.75;;;9.10;1.00;;;;;;5427648;26;20213;-83
2024/04/24 09:28:52;;;;;;;12.90;1.60;;;9.30;1.00;;;;;;5459961;26;20594;-83
2024/04/24 09:31:18;;;;;;;15.57;1.80;;;9.70;1.00;;;;;;5428185;26;20229;-86
2024/04/24 09:33:45;;;;;;;18.07;2.00;;;9.90;1.00;;;;;;5459115;26;20317;-83
2024/04/24 09:36:11;;;;;;;15.63;1.88;;;9.90;1.00;;;;;;5427612;26;20463;-83
2024/04/24 09:38:41;;;;;;;16.75;2.10;;;9.70;1.00;;;;;;5427544;26;20217;-84
2024/04/24 09:41:09;;;;;;;16.40;2.25;;;9.60;1.00;;;;;;5426205;26;20247;-85
2024/04/24 09:43:35;;;;;;;14.88;1.90;;;9.60;1.00;;;;;;5427847;26;20205;-84
2024/04/24 09:46:03;;;;;;;17.75;1.63;;;9.50;1.00;;;;;;5427412;26;20220;-83
2024/04/24 09:48:29;;;;;;;18.90;2.65;;;9.30;1.00;;;;;;5458878;26;20207;-85
2024/04/24 09:50:54;;;;;;;14.90;1.63;;;9.10;1.00;;;;;;5427307;26;20259;-84
2024/04/24 09:53:21;;;;;;;21.97;2.50;;;9.00;1.00;;;;;;5427186;26;20213;-83
2024/04/24 09:56:02;;;;;;;15.73;2.20;;;9.10;1.00;;;;;;5427516;26;20216;-83
2024/04/24 09:58:31;;;;;;;14.93;1.77;;;9.40;1.00;;;;;;5427734;26;20205;-83
2024/04/24 10:01:01;;;;;;;14.60;2.25;;;9.50;1.00;;;;;;5458948;26;20573;-83
2024/04/24 10:03:31;;;;;;;14.85;2.10;;;9.90;1.00;;;;;;5458909;26;20247;-82
2024/04/24 10:06:02;;;;;;;21.23;1.30;;;10.30;1.00;;;;;;5458428;26;20690;-86
2024/04/24 10:08:33;;;;;;;14.88;1.75;;;10.50;1.00;;;;;;5458933;26;20205;-83
2024/04/24 10:11:01;;;;;;;18.58;1.95;;;10.70;1.00;;;;;;5427123;26;20229;-84
2024/04/24 10:13:31;;;;;;;15.77;1.75;;;11.00;1.00;;;;;;5459540;26;20279;-85
2024/04/24 10:16:02;;;;;;;14.95;1.65;;;11.00;1.00;;;;;;5460027;26;20174;-84
2024/04/24 10:18:38;;;;;;;19.00;1.55;;;10.80;1.00;;;;;;5460280;26;20277;-85
2024/04/24 10:21:07;;;;;;;15.95;1.60;;;10.90;1.00;;;;;;5428111;26;20252;-86
2024/04/24 10:23:34;;;;;;;14.13;1.40;;;10.90;1.00;;;;;;5459590;26;20256;-84
2024/04/24 10:26:01;;;;;;;13.95;1.40;;;11.00;1.00;;;;;;5458343;26;20206;-82
2024/04/24 10:28:27;;;;;;;16.20;1.83;;;11.20;1.00;;;;;;5460378;26;20248;-84
2024/04/24 10:30:56;;;;;;;13.07;1.60;;;11.40;1.00;;;;;;5460047;26;20217;-85
2024/04/24 10:33:23;;;;;;;14.32;1.55;;;11.40;1.00;;;;;;5426658;26;20584;-85
2024/04/24 10:38:26;;;;;;;15.68;1.63;;;11.40;1.00;;;;;;5457063;21;20308;-85
2024/04/24 10:40:52;;;;;;;12.77;1.42;;;11.40;1.00;;;;;;5428040;26;20805;-84
2024/04/24 10:43:21;;;;;;;14.00;1.98;;;11.40;1.00;;;;;;5428378;26;20213;-85
2024/04/24 10:45:47;;;;;;;14.35;2.10;;;11.50;1.00;;;;;;5459636;26;20251;-83
2024/04/24 10:48:13;;;;;;;14.73;1.85;;;11.50;1.00;;;;;;5459122;26;20271;-85
2024/04/24 10:50:40;;;;;;;14.80;2.40;;;11.60;1.00;;;;;;5427498;26;20229;-83
2024/04/24 10:53:07;;;;;;;16.80;1.75;;;11.70;1.00;;;;;;5458825;26;20463;-85
2024/04/24 10:55:33;;;;;;;13.85;1.48;;;11.90;1.00;;;;;;5428025;26;20252;-84
2024/04/24 10:57:59;;;;;;;15.55;1.58;;;12.10;1.00;;;;;;5427816;26;20225;-83
2024/04/24 11:00:29;;;;;;;21.00;2.70;;;12.20;1.00;;;;;;5428755;26;20225;-85
2024/04/24 11:02:57;;;;;;;15.18;2.00;;;12.60;1.00;;;;;;5460180;26;20196;-84
2024/04/24 11:05:23;;;;;;;15.88;1.52;;;12.70;1.00;;;;;;5458201;26;20741;-83
2024/04/24 11:08:00;;;;;;;13.70;1.67;;;12.80;1.00;;;;;;5426500;26;20281;-83
2024/04/24 11:10:26;;;;;;;14.18;2.13;;;12.70;1.00;;;;;;5458961;26;20217;-85
2024/04/24 11:12:55;;;;;;;16.50;1.92;;;12.80;1.00;;;;;;5458921;26;20169;-84
2024/04/24 11:15:25;;;;;;;14.43;1.70;;;12.80;1.00;;;;;;5458193;26;20209;-84
2024/04/24 11:17:51;;;;;;;18.60;1.27;;;12.80;1.00;;;;;;5457704;26;20181;-84
2024/04/24 11:20:21;;;;;;;19.50;1.93;;;13.10;1.00;;;;;;5457470;26;20305;-85
2024/04/24 11:22:47;;;;;;;19.50;1.87;;;13.40;1.00;;;;;;5426617;26;20213;-84
2024/04/24 11:25:20;;;;;;;12.23;1.30;;;13.30;1.00;;;;;;5458364;26;20492;-85
2024/04/24 11:27:45;;;;;;;17.83;1.83;;;12.90;1.00;;;;;;5459052;26;20182;-84
2024/04/24 11:30:16;;;;;;;14.60;2.10;;;12.30;1.00;;;;;;5426545;26;20275;-84
2024/04/24 11:32:48;;;;;;;14.10;1.70;;;11.90;1.00;;;;;;5458005;26;20205;-85
2024/04/24 11:35:16;;;;;;;13.25;1.35;;;11.60;1.00;;;;;;5425583;26;20217;-85
2024/04/24 11:37:44;;;;;;;12.57;1.13;;;11.40;1.00;;;;;;5457355;26;20229;-83
2024/04/24 11:40:10;;;;;;;18.10;1.67;;;11.30;1.00;;;;;;5457368;26;20251;-82
2024/04/24 11:42:47;;;;;;;15.90;1.77;;;11.10;1.00;;;;;;5456512;26;20205;-82
2024/04/24 11:45:19;;;;;;;14.40;1.50;;;10.90;1.00;;;;;;5457595;26;20659;-84
2024/04/24 11:47:52;;;;;;;13.90;2.00;;;10.70;1.00;;;;;;5425856;26;20209;-83
2024/04/24 11:50:21;;;;;;;15.18;1.92;;;10.60;1.00;;;;;;5425382;26;20629;-84
2024/04/24 11:52:48;;;;;;;12.32;1.05;;;10.40;1.00;;;;;;5425849;26;20221;-83
2024/04/24 11:55:13;;;;;;;14.45;1.50;;;10.30;1.00;;;;;;5457107;26;20251;-84
2024/04/24 11:57:40;;;;;;;15.63;1.97;;;10.40;1.00;;;;;;5425733;26;20213;-85
2024/04/24 12:00:07;;;;;;;14.75;2.03;;;10.40;1.00;;;;;;5425163;26;20273;-82
2024/04/24 12:02:35;;;;;;;16.25;1.52;;;10.40;1.00;;;;;;5457084;26;20535;-85
2024/04/24 12:05:05;;;;;;;13.82;1.73;;;10.40;1.00;;;;;;5461637;26;20273;-84
2024/04/24 12:07:45;;;;;;;14.40;2.03;;;10.20;1.00;;;;;;5460950;26;20693;-83
2024/04/24 12:10:11;;;;;;;13.32;1.30;;;10.20;1.00;;;;;;5429183;26;20229;-83
2024/04/24 12:12:37;;;;;;;14.23;1.70;;;10.20;1.00;;;;;;5429344;26;20221;-83
2024/04/24 12:15:05;;;;;;;18.50;2.80;;;10.30;1.00;;;;;;5429281;26;20209;-83
2024/04/24 12:17:31;;;;;;;12.40;1.10;;;10.30;1.00;;;;;;5430742;26;20440;-84
2024/04/24 12:19:57;;;;;;;13.97;1.40;;;10.60;1.00;;;;;;5429883;26;20244;-84
2024/04/24 12:22:23;;;;;;;15.50;1.27;;;10.70;1.00;;;;;;5462013;26;20252;-84
2024/04/24 12:24:48;;;;;;;14.33;1.30;;;10.80;1.00;;;;;;5462484;26;20209;-86
2024/04/24 12:27:17;;;;;;;14.50;1.37;;;11.10;1.00;;;;;;5430051;26;20209;-84
2024/04/24 12:29:43;;;;;;;14.55;1.27;;;11.40;1.00;;;;;;5430713;26;20214;-85
2024/04/24 12:32:10;;;;;;;13.75;1.23;;;11.60;1.00;;;;;;5463703;26;20258;-84
2024/04/24 12:34:35;;;;;;;15.05;1.20;;;11.60;1.00;;;;;;5428918;26;20601;-83
2024/04/24 12:37:01;;;;;;;13.00;1.40;;;11.80;1.00;;;;;;5461626;26;20287;-84
2024/04/24 12:39:27;;;;;;;17.50;1.93;;;11.80;1.00;;;;;;5462154;26;20205;-84
2024/04/24 12:41:52;;;;;;;14.37;2.23;;;11.80;1.00;;;;;;5430926;26;20603;-84
2024/04/24 12:44:18;;;;;;;16.03;1.83;;;12.00;1.00;;;;;;5429797;26;20209;-84
2024/04/24 12:46:44;;;;;;;15.63;2.20;;;12.20;1.00;;;;;;5460693;26;20694;-84
2024/04/24 12:49:10;;;;;;;20.93;2.60;;;12.60;1.00;;;;;;5429490;26;20552;-83
2024/04/24 12:51:38;;;;;;;16.40;1.83;;;13.00;1.00;;;;;;5460867;26;20286;-84
2024/04/24 12:54:06;;;;;;;14.68;1.80;;;13.30;1.00;;;;;;5461246;26;20209;-84
2024/04/24 12:56:32;;;;;;;15.27;1.83;;;13.40;1.00;;;;;;5429379;26;20221;-84